sensor_id;sensor_type;location;lat;lon;timestamp;P1;durP1;ratioP1;P2;durP2;ratioP2
5742;SDS011;2896;53.500;10.020;2022-12-07T00:01:47;33.40;;;21.20;;
5742;SDS011;2896;53.500;10.020;2022-12-07T00:04:14;35.17;;;19.60;;
5742;SDS011;2896;53.500;10.020;2022-12-07T00:06:43;35.90;;;20.87;;
5742;SDS011;2896;53.500;10.020;2022-12-07T00:09:11;38.30;;;21.57;;
5742;SDS011;2896;53.500;10.020;2022-12-07T00:11:41;35.10;;;19.73;;
5742;SDS011;2896;53.500;10.020;2022-12-07T00:14:11;31.07;;;20.10;;
5742;SDS011;2896;53.500;10.020;2022-12-07T00:16:39;38.40;;;20.10;;
5742;SDS011;2896;53.500;10.020;2022-12-07T00:19:06;34.20;;;21.53;;
5742;SDS011;2896;53.500;10.020;2022-12-07T00:21:34;35.40;;;20.70;;
5742;SDS011;2896;53.500;10.020;2022-12-07T00:24:01;39.00;;;21.90;;
5742;SDS011;2896;53.500;10.020;2022-12-07T00:26:29;37.53;;;19.93;;
5742;SDS011;2896;53.500;10.020;2022-12-07T00:28:58;31.00;;;19.30;;
5742;SDS011;2896;53.500;10.020;2022-12-07T00:31:28;32.80;;;19.77;;
5742;SDS011;2896;53.500;10.020;2022-12-07T00:33:58;35.37;;;20.93;;
5742;SDS011;2896;53.500;10.020;2022-12-07T00:36:25;33.77;;;19.53;;
5742;SDS011;2896;53.500;10.020;2022-12-07T00:38:52;35.57;;;19.67;;
5742;SDS011;2896;53.500;10.020;2022-12-07T00:41:19;27.93;;;17.13;;
5742;SDS011;2896;53.500;10.020;2022-12-07T00:43:48;29.53;;;18.20;;
5742;SDS011;2896;53.500;10.020;2022-12-07T00:46:15;31.40;;;18.13;;
5742;SDS011;2896;53.500;10.020;2022-12-07T00:48:44;34.93;;;17.93;;
5742;SDS011;2896;53.500;10.020;2022-12-07T00:51:11;34.10;;;18.20;;
5742;SDS011;2896;53.500;10.020;2022-12-07T00:53:39;24.90;;;16.73;;
5742;SDS011;2896;53.500;10.020;2022-12-07T00:56:06;31.77;;;16.67;;
5742;SDS011;2896;53.500;10.020;2022-12-07T00:58:34;27.50;;;16.37;;
5742;SDS011;2896;53.500;10.020;2022-12-07T01:01:01;29.93;;;17.03;;
5742;SDS011;2896;53.500;10.020;2022-12-07T01:03:28;32.97;;;16.60;;
5742;SDS011;2896;53.500;10.020;2022-12-07T01:05:56;31.00;;;16.73;;
5742;SDS011;2896;53.500;10.020;2022-12-07T01:08:23;30.93;;;18.23;;
5742;SDS011;2896;53.500;10.020;2022-12-07T01:10:57;25.70;;;16.30;;
5742;SDS011;2896;53.500;10.020;2022-12-07T01:13:25;28.67;;;17.23;;
5742;SDS011;2896;53.500;10.020;2022-12-07T01:15:55;30.80;;;16.10;;
5742;SDS011;2896;53.500;10.020;2022-12-07T01:18:24;25.77;;;16.77;;
5742;SDS011;2896;53.500;10.020;2022-12-07T01:20:58;29.33;;;16.40;;
5742;SDS011;2896;53.500;10.020;2022-12-07T01:23:26;29.20;;;15.50;;
5742;SDS011;2896;53.500;10.020;2022-12-07T01:25:56;25.63;;;15.03;;
5742;SDS011;2896;53.500;10.020;2022-12-07T01:28:23;25.37;;;14.53;;
5742;SDS011;2896;53.500;10.020;2022-12-07T01:30:57;38.23;;;15.50;;
5742;SDS011;2896;53.500;10.020;2022-12-07T01:33:26;21.90;;;14.73;;
5742;SDS011;2896;53.500;10.020;2022-12-07T01:35:53;29.43;;;15.93;;
5742;SDS011;2896;53.500;10.020;2022-12-07T01:38:21;24.17;;;15.33;;
5742;SDS011;2896;53.500;10.020;2022-12-07T01:40:53;27.00;;;14.93;;
5742;SDS011;2896;53.500;10.020;2022-12-07T01:43:20;25.70;;;14.10;;
5742;SDS011;2896;53.500;10.020;2022-12-07T01:45:49;27.60;;;15.47;;
5742;SDS011;2896;53.500;10.020;2022-12-07T01:48:16;27.40;;;14.67;;
5742;SDS011;2896;53.500;10.020;2022-12-07T01:50:46;25.20;;;15.03;;
5742;SDS011;2896;53.500;10.020;2022-12-07T01:53:14;29.73;;;14.73;;
5742;SDS011;2896;53.500;10.020;2022-12-07T01:55:44;27.13;;;14.23;;
5742;SDS011;2896;53.500;10.020;2022-12-07T01:58:15;25.13;;;13.77;;
5742;SDS011;2896;53.500;10.020;2022-12-07T02:00:42;25.23;;;13.43;;
5742;SDS011;2896;53.500;10.020;2022-12-07T02:03:11;26.10;;;13.97;;
5742;SDS011;2896;53.500;10.020;2022-12-07T02:05:42;30.13;;;13.97;;
5742;SDS011;2896;53.500;10.020;2022-12-07T02:08:09;25.13;;;12.77;;
5742;SDS011;2896;53.500;10.020;2022-12-07T02:10:38;24.63;;;13.70;;
5742;SDS011;2896;53.500;10.020;2022-12-07T02:13:08;29.20;;;13.90;;
5742;SDS011;2896;53.500;10.020;2022-12-07T02:15:39;22.03;;;11.80;;
5742;SDS011;2896;53.500;10.020;2022-12-07T02:18:19;20.20;;;11.77;;
5742;SDS011;2896;53.500;10.020;2022-12-07T02:20:53;19.90;;;12.70;;
5742;SDS011;2896;53.500;10.020;2022-12-07T02:23:37;20.90;;;11.93;;
5742;SDS011;2896;53.500;10.020;2022-12-07T02:26:34;17.97;;;10.50;;
5742;SDS011;2896;53.500;10.020;2022-12-07T02:29:18;18.70;;;10.63;;
5742;SDS011;2896;53.500;10.020;2022-12-07T02:31:51;23.40;;;10.60;;
5742;SDS011;2896;53.500;10.020;2022-12-07T02:34:28;27.57;;;10.87;;
5742;SDS011;2896;53.500;10.020;2022-12-07T02:37:01;17.97;;;10.40;;
5742;SDS011;2896;53.500;10.020;2022-12-07T02:39:36;15.27;;;9.43;;
5742;SDS011;2896;53.500;10.020;2022-12-07T02:42:07;14.73;;;9.73;;
5742;SDS011;2896;53.500;10.020;2022-12-07T02:44:39;22.60;;;9.20;;
5742;SDS011;2896;53.500;10.020;2022-12-07T02:47:08;19.40;;;9.30;;
5742;SDS011;2896;53.500;10.020;2022-12-07T02:49:38;22.10;;;9.90;;
5742;SDS011;2896;53.500;10.020;2022-12-07T02:52:06;15.67;;;8.90;;
5742;SDS011;2896;53.500;10.020;2022-12-07T02:54:32;11.17;;;6.80;;
5742;SDS011;2896;53.500;10.020;2022-12-07T02:57:00;27.43;;;9.30;;
5742;SDS011;2896;53.500;10.020;2022-12-07T02:59:36;13.83;;;8.00;;
5742;SDS011;2896;53.500;10.020;2022-12-07T03:02:16;11.77;;;7.40;;
5742;SDS011;2896;53.500;10.020;2022-12-07T03:04:52;13.53;;;6.83;;
5742;SDS011;2896;53.500;10.020;2022-12-07T03:07:29;10.83;;;7.10;;
5742;SDS011;2896;53.500;10.020;2022-12-07T03:10:02;21.50;;;7.43;;
5742;SDS011;2896;53.500;10.020;2022-12-07T03:12:43;9.43;;;5.67;;
5742;SDS011;2896;53.500;10.020;2022-12-07T03:15:18;21.70;;;7.10;;
5742;SDS011;2896;53.500;10.020;2022-12-07T03:17:52;16.07;;;6.97;;
5742;SDS011;2896;53.500;10.020;2022-12-07T03:20:23;11.10;;;6.33;;
5742;SDS011;2896;53.500;10.020;2022-12-07T03:22:51;10.47;;;5.93;;
5742;SDS011;2896;53.500;10.020;2022-12-07T03:25:20;10.70;;;5.80;;
5742;SDS011;2896;53.500;10.020;2022-12-07T03:27:48;10.33;;;5.77;;
5742;SDS011;2896;53.500;10.020;2022-12-07T03:30:22;15.20;;;5.87;;
5742;SDS011;2896;53.500;10.020;2022-12-07T03:32:53;12.70;;;5.27;;
5742;SDS011;2896;53.500;10.020;2022-12-07T03:35:25;14.40;;;5.60;;
5742;SDS011;2896;53.500;10.020;2022-12-07T03:37:56;19.33;;;5.60;;
5742;SDS011;2896;53.500;10.020;2022-12-07T03:40:27;11.33;;;4.70;;
5742;SDS011;2896;53.500;10.020;2022-12-07T03:42:58;13.57;;;5.00;;
5742;SDS011;2896;53.500;10.020;2022-12-07T03:45:30;7.40;;;4.70;;
5742;SDS011;2896;53.500;10.020;2022-12-07T03:48:04;6.13;;;4.13;;
5742;SDS011;2896;53.500;10.020;2022-12-07T03:50:36;7.40;;;4.43;;
5742;SDS011;2896;53.500;10.020;2022-12-07T03:53:09;11.20;;;5.07;;
5742;SDS011;2896;53.500;10.020;2022-12-07T03:55:41;10.73;;;4.50;;
5742;SDS011;2896;53.500;10.020;2022-12-07T03:58:11;6.00;;;4.20;;
5742;SDS011;2896;53.500;10.020;2022-12-07T04:00:41;13.23;;;4.33;;
5742;SDS011;2896;53.500;10.020;2022-12-07T04:03:09;13.77;;;4.40;;
5742;SDS011;2896;53.500;10.020;2022-12-07T04:05:36;16.80;;;4.30;;
5742;SDS011;2896;53.500;10.020;2022-12-07T04:08:04;8.90;;;3.50;;
5742;SDS011;2896;53.500;10.020;2022-12-07T04:10:31;8.20;;;4.00;;
5742;SDS011;2896;53.500;10.020;2022-12-07T04:12:57;9.57;;;4.27;;
5742;SDS011;2896;53.500;10.020;2022-12-07T04:15:24;14.27;;;4.10;;
5742;SDS011;2896;53.500;10.020;2022-12-07T04:17:52;21.00;;;3.80;;
5742;SDS011;2896;53.500;10.020;2022-12-07T04:20:19;4.53;;;3.40;;
5742;SDS011;2896;53.500;10.020;2022-12-07T04:22:46;7.83;;;3.20;;
5742;SDS011;2896;53.500;10.020;2022-12-07T04:25:13;6.80;;;3.67;;
5742;SDS011;2896;53.500;10.020;2022-12-07T04:27:40;6.80;;;3.53;;
5742;SDS011;2896;53.500;10.020;2022-12-07T04:30:07;10.43;;;3.60;;
5742;SDS011;2896;53.500;10.020;2022-12-07T04:32:34;9.33;;;3.40;;
5742;SDS011;2896;53.500;10.020;2022-12-07T04:35:02;3.90;;;3.43;;
5742;SDS011;2896;53.500;10.020;2022-12-07T04:37:29;10.90;;;4.10;;
5742;SDS011;2896;53.500;10.020;2022-12-07T04:39:56;8.00;;;3.77;;
5742;SDS011;2896;53.500;10.020;2022-12-07T04:42:22;4.57;;;3.07;;
5742;SDS011;2896;53.500;10.020;2022-12-07T04:44:49;3.90;;;3.57;;
5742;SDS011;2896;53.500;10.020;2022-12-07T04:47:16;4.43;;;3.30;;
5742;SDS011;2896;53.500;10.020;2022-12-07T04:49:45;6.10;;;3.23;;
5742;SDS011;2896;53.500;10.020;2022-12-07T04:52:12;9.87;;;3.37;;
5742;SDS011;2896;53.500;10.020;2022-12-07T04:54:39;7.30;;;3.40;;
5742;SDS011;2896;53.500;10.020;2022-12-07T04:57:06;6.03;;;3.00;;
5742;SDS011;2896;53.500;10.020;2022-12-07T04:59:32;10.67;;;4.00;;
5742;SDS011;2896;53.500;10.020;2022-12-07T05:01:59;7.17;;;3.87;;
5742;SDS011;2896;53.500;10.020;2022-12-07T05:04:26;11.27;;;4.67;;
5742;SDS011;2896;53.500;10.020;2022-12-07T05:06:52;5.00;;;3.70;;
5742;SDS011;2896;53.500;10.020;2022-12-07T05:09:20;15.60;;;4.07;;
5742;SDS011;2896;53.500;10.020;2022-12-07T05:11:47;6.00;;;3.50;;
5742;SDS011;2896;53.500;10.020;2022-12-07T05:14:15;6.50;;;3.67;;
5742;SDS011;2896;53.500;10.020;2022-12-07T05:16:43;4.70;;;3.50;;
5742;SDS011;2896;53.500;10.020;2022-12-07T05:19:12;5.27;;;4.17;;
5742;SDS011;2896;53.500;10.020;2022-12-07T05:21:39;5.60;;;4.40;;
5742;SDS011;2896;53.500;10.020;2022-12-07T05:24:06;6.27;;;4.20;;
5742;SDS011;2896;53.500;10.020;2022-12-07T05:26:35;4.20;;;3.80;;
5742;SDS011;2896;53.500;10.020;2022-12-07T05:29:02;9.60;;;5.23;;
5742;SDS011;2896;53.500;10.020;2022-12-07T05:31:30;4.03;;;3.70;;
5742;SDS011;2896;53.500;10.020;2022-12-07T05:33:57;4.47;;;4.13;;
5742;SDS011;2896;53.500;10.020;2022-12-07T05:36:24;5.00;;;4.60;;
5742;SDS011;2896;53.500;10.020;2022-12-07T05:38:50;6.73;;;4.17;;
5742;SDS011;2896;53.500;10.020;2022-12-07T05:41:17;8.23;;;4.00;;
5742;SDS011;2896;53.500;10.020;2022-12-07T05:44:03;4.80;;;4.30;;
5742;SDS011;2896;53.500;10.020;2022-12-07T05:46:30;4.50;;;3.87;;
5742;SDS011;2896;53.500;10.020;2022-12-07T05:48:57;7.30;;;4.00;;
5742;SDS011;2896;53.500;10.020;2022-12-07T05:51:24;3.80;;;3.33;;
5742;SDS011;2896;53.500;10.020;2022-12-07T05:53:50;4.07;;;3.50;;
5742;SDS011;2896;53.500;10.020;2022-12-07T05:56:17;4.10;;;3.80;;
5742;SDS011;2896;53.500;10.020;2022-12-07T05:58:44;9.70;;;3.70;;
5742;SDS011;2896;53.500;10.020;2022-12-07T06:01:29;7.20;;;4.10;;
5742;SDS011;2896;53.500;10.020;2022-12-07T06:03:56;8.23;;;4.30;;
5742;SDS011;2896;53.500;10.020;2022-12-07T06:06:23;4.60;;;3.67;;
5742;SDS011;2896;53.500;10.020;2022-12-07T06:08:49;8.07;;;3.20;;
5742;SDS011;2896;53.500;10.020;2022-12-07T06:11:16;11.87;;;3.87;;
5742;SDS011;2896;53.500;10.020;2022-12-07T06:14:00;3.40;;;3.20;;
5742;SDS011;2896;53.500;10.020;2022-12-07T06:16:27;3.93;;;3.63;;
5742;SDS011;2896;53.500;10.020;2022-12-07T06:18:55;9.00;;;4.70;;
5742;SDS011;2896;53.500;10.020;2022-12-07T06:21:21;6.23;;;4.33;;
5742;SDS011;2896;53.500;10.020;2022-12-07T06:23:48;5.87;;;4.67;;
5742;SDS011;2896;53.500;10.020;2022-12-07T06:26:15;4.47;;;4.07;;
5742;SDS011;2896;53.500;10.020;2022-12-07T06:28:42;6.83;;;4.13;;
5742;SDS011;2896;53.500;10.020;2022-12-07T06:31:08;8.60;;;4.33;;
5742;SDS011;2896;53.500;10.020;2022-12-07T06:33:36;7.00;;;3.80;;
5742;SDS011;2896;53.500;10.020;2022-12-07T06:36:04;3.57;;;2.93;;
5742;SDS011;2896;53.500;10.020;2022-12-07T06:38:31;4.47;;;3.97;;
5742;SDS011;2896;53.500;10.020;2022-12-07T06:40:58;4.83;;;2.90;;
5742;SDS011;2896;53.500;10.020;2022-12-07T06:43:24;3.77;;;3.47;;
5742;SDS011;2896;53.500;10.020;2022-12-07T06:45:52;5.93;;;3.70;;
5742;SDS011;2896;53.500;10.020;2022-12-07T06:48:18;9.80;;;3.40;;
5742;SDS011;2896;53.500;10.020;2022-12-07T06:50:45;10.47;;;3.50;;
5742;SDS011;2896;53.500;10.020;2022-12-07T06:53:14;4.50;;;3.30;;
5742;SDS011;2896;53.500;10.020;2022-12-07T06:55:40;4.03;;;3.50;;
5742;SDS011;2896;53.500;10.020;2022-12-07T06:58:08;3.00;;;2.77;;
5742;SDS011;2896;53.500;10.020;2022-12-07T07:00:35;7.13;;;3.43;;
5742;SDS011;2896;53.500;10.020;2022-12-07T07:03:02;3.30;;;3.00;;
5742;SDS011;2896;53.500;10.020;2022-12-07T07:05:28;15.07;;;3.30;;
5742;SDS011;2896;53.500;10.020;2022-12-07T07:07:55;9.43;;;2.70;;
5742;SDS011;2896;53.500;10.020;2022-12-07T07:10:23;6.83;;;2.87;;
5742;SDS011;2896;53.500;10.020;2022-12-07T07:12:50;16.03;;;3.33;;
5742;SDS011;2896;53.500;10.020;2022-12-07T07:15:16;3.17;;;2.13;;
5742;SDS011;2896;53.500;10.020;2022-12-07T07:17:43;7.17;;;3.40;;
5742;SDS011;2896;53.500;10.020;2022-12-07T07:20:10;4.77;;;2.47;;
5742;SDS011;2896;53.500;10.020;2022-12-07T07:22:38;5.23;;;2.50;;
5742;SDS011;2896;53.500;10.020;2022-12-07T07:25:05;3.03;;;2.53;;
5742;SDS011;2896;53.500;10.020;2022-12-07T07:27:33;4.33;;;2.57;;
5742;SDS011;2896;53.500;10.020;2022-12-07T07:30:00;4.90;;;3.03;;
5742;SDS011;2896;53.500;10.020;2022-12-07T07:32:27;2.93;;;2.60;;
5742;SDS011;2896;53.500;10.020;2022-12-07T07:34:53;4.00;;;2.90;;
5742;SDS011;2896;53.500;10.020;2022-12-07T07:37:20;7.17;;;3.10;;
5742;SDS011;2896;53.500;10.020;2022-12-07T07:39:47;2.50;;;2.40;;
5742;SDS011;2896;53.500;10.020;2022-12-07T07:42:14;7.83;;;2.77;;
5742;SDS011;2896;53.500;10.020;2022-12-07T07:44:42;4.60;;;3.07;;
5742;SDS011;2896;53.500;10.020;2022-12-07T07:47:08;11.97;;;3.20;;
5742;SDS011;2896;53.500;10.020;2022-12-07T07:49:35;5.70;;;2.20;;
5742;SDS011;2896;53.500;10.020;2022-12-07T07:52:02;5.90;;;2.40;;
5742;SDS011;2896;53.500;10.020;2022-12-07T07:54:30;5.13;;;2.60;;
5742;SDS011;2896;53.500;10.020;2022-12-07T07:56:57;5.87;;;1.80;;
5742;SDS011;2896;53.500;10.020;2022-12-07T07:59:24;13.47;;;2.83;;
5742;SDS011;2896;53.500;10.020;2022-12-07T08:01:52;8.13;;;2.73;;
5742;SDS011;2896;53.500;10.020;2022-12-07T08:04:18;8.90;;;3.30;;
5742;SDS011;2896;53.500;10.020;2022-12-07T08:06:45;2.73;;;2.00;;
5742;SDS011;2896;53.500;10.020;2022-12-07T08:09:12;6.87;;;2.50;;
5742;SDS011;2896;53.500;10.020;2022-12-07T08:11:39;3.20;;;2.30;;
5742;SDS011;2896;53.500;10.020;2022-12-07T08:14:05;9.13;;;2.80;;
5742;SDS011;2896;53.500;10.020;2022-12-07T08:16:32;2.73;;;2.43;;
5742;SDS011;2896;53.500;10.020;2022-12-07T08:19:00;20.47;;;2.57;;
5742;SDS011;2896;53.500;10.020;2022-12-07T08:21:26;4.03;;;2.47;;
5742;SDS011;2896;53.500;10.020;2022-12-07T08:23:53;5.80;;;2.33;;
5742;SDS011;2896;53.500;10.020;2022-12-07T08:26:20;3.73;;;2.50;;
5742;SDS011;2896;53.500;10.020;2022-12-07T08:28:46;3.60;;;2.03;;
5742;SDS011;2896;53.500;10.020;2022-12-07T08:31:14;12.40;;;2.50;;
5742;SDS011;2896;53.500;10.020;2022-12-07T08:33:43;3.23;;;2.27;;
5742;SDS011;2896;53.500;10.020;2022-12-07T08:36:12;7.93;;;2.10;;
5742;SDS011;2896;53.500;10.020;2022-12-07T08:38:40;6.70;;;2.90;;
5742;SDS011;2896;53.500;10.020;2022-12-07T08:41:07;22.03;;;3.03;;
5742;SDS011;2896;53.500;10.020;2022-12-07T08:43:35;7.63;;;2.13;;
5742;SDS011;2896;53.500;10.020;2022-12-07T08:46:04;3.90;;;2.73;;
5742;SDS011;2896;53.500;10.020;2022-12-07T08:48:35;12.47;;;2.17;;
5742;SDS011;2896;53.500;10.020;2022-12-07T08:51:05;6.97;;;2.77;;
5742;SDS011;2896;53.500;10.020;2022-12-07T08:53:33;4.40;;;2.50;;
5742;SDS011;2896;53.500;10.020;2022-12-07T08:56:01;6.10;;;2.70;;
5742;SDS011;2896;53.500;10.020;2022-12-07T08:58:28;4.90;;;2.93;;
5742;SDS011;2896;53.500;10.020;2022-12-07T09:00:54;5.03;;;2.93;;
5742;SDS011;2896;53.500;10.020;2022-12-07T09:03:21;3.50;;;2.37;;
5742;SDS011;2896;53.500;10.020;2022-12-07T09:05:48;3.43;;;2.53;;
5742;SDS011;2896;53.500;10.020;2022-12-07T09:08:15;4.60;;;2.90;;
5742;SDS011;2896;53.500;10.020;2022-12-07T09:10:43;14.63;;;4.20;;
5742;SDS011;2896;53.500;10.020;2022-12-07T09:13:10;9.30;;;3.33;;
5742;SDS011;2896;53.500;10.020;2022-12-07T09:15:37;5.50;;;2.20;;
5742;SDS011;2896;53.500;10.020;2022-12-07T09:18:03;7.60;;;2.97;;
5742;SDS011;2896;53.500;10.020;2022-12-07T09:20:30;5.73;;;3.17;;
5742;SDS011;2896;53.500;10.020;2022-12-07T09:22:57;15.30;;;3.27;;
5742;SDS011;2896;53.500;10.020;2022-12-07T09:25:23;4.20;;;2.70;;
5742;SDS011;2896;53.500;10.020;2022-12-07T09:27:55;11.03;;;2.93;;
5742;SDS011;2896;53.500;10.020;2022-12-07T09:30:23;7.20;;;2.90;;
5742;SDS011;2896;53.500;10.020;2022-12-07T09:32:49;3.93;;;2.83;;
5742;SDS011;2896;53.500;10.020;2022-12-07T09:35:18;9.73;;;2.77;;
5742;SDS011;2896;53.500;10.020;2022-12-07T09:37:45;8.93;;;2.70;;
5742;SDS011;2896;53.500;10.020;2022-12-07T09:40:12;3.80;;;2.93;;
5742;SDS011;2896;53.500;10.020;2022-12-07T09:42:39;5.60;;;2.80;;
5742;SDS011;2896;53.500;10.020;2022-12-07T09:45:13;3.27;;;2.37;;
5742;SDS011;2896;53.500;10.020;2022-12-07T09:47:41;7.73;;;3.17;;
5742;SDS011;2896;53.500;10.020;2022-12-07T09:50:12;6.60;;;2.77;;
5742;SDS011;2896;53.500;10.020;2022-12-07T09:52:41;11.03;;;2.67;;
5742;SDS011;2896;53.500;10.020;2022-12-07T09:55:11;5.13;;;2.47;;
5742;SDS011;2896;53.500;10.020;2022-12-07T09:57:39;2.23;;;1.50;;
5742;SDS011;2896;53.500;10.020;2022-12-07T10:00:10;4.27;;;2.23;;
5742;SDS011;2896;53.500;10.020;2022-12-07T10:02:41;5.63;;;2.20;;
5742;SDS011;2896;53.500;10.020;2022-12-07T10:05:12;4.80;;;2.30;;
5742;SDS011;2896;53.500;10.020;2022-12-07T10:07:40;14.20;;;2.23;;
5742;SDS011;2896;53.500;10.020;2022-12-07T10:10:12;12.30;;;4.27;;
5742;SDS011;2896;53.500;10.020;2022-12-07T10:12:52;4.83;;;2.03;;
5742;SDS011;2896;53.500;10.020;2022-12-07T10:15:25;5.77;;;2.30;;
5742;SDS011;2896;53.500;10.020;2022-12-07T10:18:16;11.73;;;2.17;;
5742;SDS011;2896;53.500;10.020;2022-12-07T10:20:45;4.33;;;1.80;;
5742;SDS011;2896;53.500;10.020;2022-12-07T10:23:14;5.33;;;1.93;;
5742;SDS011;2896;53.500;10.020;2022-12-07T10:25:41;8.80;;;2.17;;
5742;SDS011;2896;53.500;10.020;2022-12-07T10:28:11;1.47;;;1.37;;
5742;SDS011;2896;53.500;10.020;2022-12-07T10:30:49;2.70;;;2.07;;
5742;SDS011;2896;53.500;10.020;2022-12-07T10:36:09;3.87;;;1.40;;
5742;SDS011;2896;53.500;10.020;2022-12-07T10:38:44;2.23;;;1.37;;
5742;SDS011;2896;53.500;10.020;2022-12-07T10:41:12;12.23;;;1.83;;
5742;SDS011;2896;53.500;10.020;2022-12-07T10:43:46;8.43;;;1.53;;
5742;SDS011;2896;53.500;10.020;2022-12-07T10:46:22;2.60;;;1.30;;
5742;SDS011;2896;53.500;10.020;2022-12-07T10:49:10;12.73;;;1.33;;
5742;SDS011;2896;53.500;10.020;2022-12-07T10:51:58;1.40;;;1.30;;
5742;SDS011;2896;53.500;10.020;2022-12-07T10:54:34;8.27;;;1.53;;
5742;SDS011;2896;53.500;10.020;2022-12-07T10:57:16;4.37;;;1.57;;
5742;SDS011;2896;53.500;10.020;2022-12-07T11:00:00;1.50;;;1.23;;
5742;SDS011;2896;53.500;10.020;2022-12-07T11:02:50;4.40;;;1.43;;
5742;SDS011;2896;53.500;10.020;2022-12-07T11:05:42;6.47;;;1.93;;
5742;SDS011;2896;53.500;10.020;2022-12-07T11:08:17;6.27;;;1.90;;
5742;SDS011;2896;53.500;10.020;2022-12-07T11:10:50;4.50;;;2.00;;
5742;SDS011;2896;53.500;10.020;2022-12-07T11:13:23;6.13;;;2.03;;
5742;SDS011;2896;53.500;10.020;2022-12-07T11:16:00;11.70;;;2.47;;
5742;SDS011;2896;53.500;10.020;2022-12-07T11:18:35;4.10;;;1.70;;
5742;SDS011;2896;53.500;10.020;2022-12-07T11:21:09;5.13;;;2.07;;
5742;SDS011;2896;53.500;10.020;2022-12-07T11:23:45;3.10;;;1.67;;
5742;SDS011;2896;53.500;10.020;2022-12-07T11:26:22;7.20;;;1.83;;
5742;SDS011;2896;53.500;10.020;2022-12-07T11:28:59;5.53;;;1.93;;
5742;SDS011;2896;53.500;10.020;2022-12-07T11:31:48;6.93;;;1.93;;
5742;SDS011;2896;53.500;10.020;2022-12-07T11:34:24;9.97;;;2.50;;
5742;SDS011;2896;53.500;10.020;2022-12-07T11:36:59;11.67;;;2.23;;
5742;SDS011;2896;53.500;10.020;2022-12-07T11:39:30;12.90;;;1.80;;
5742;SDS011;2896;53.500;10.020;2022-12-07T11:42:03;7.77;;;1.97;;
5742;SDS011;2896;53.500;10.020;2022-12-07T11:44:33;7.33;;;1.50;;
5742;SDS011;2896;53.500;10.020;2022-12-07T11:47:09;3.80;;;2.60;;
5742;SDS011;2896;53.500;10.020;2022-12-07T11:49:44;5.37;;;2.17;;
5742;SDS011;2896;53.500;10.020;2022-12-07T11:52:18;5.53;;;2.00;;
5742;SDS011;2896;53.500;10.020;2022-12-07T11:54:51;8.23;;;2.80;;
5742;SDS011;2896;53.500;10.020;2022-12-07T11:57:20;5.40;;;1.97;;
5742;SDS011;2896;53.500;10.020;2022-12-07T11:59:52;5.00;;;2.00;;
5742;SDS011;2896;53.500;10.020;2022-12-07T12:02:23;4.67;;;1.60;;
5742;SDS011;2896;53.500;10.020;2022-12-07T12:04:58;5.10;;;1.53;;
5742;SDS011;2896;53.500;10.020;2022-12-07T12:07:29;7.13;;;2.20;;
5742;SDS011;2896;53.500;10.020;2022-12-07T12:09:58;4.57;;;1.83;;
5742;SDS011;2896;53.500;10.020;2022-12-07T12:12:40;7.73;;;2.13;;
5742;SDS011;2896;53.500;10.020;2022-12-07T12:15:20;4.60;;;1.63;;
5742;SDS011;2896;53.500;10.020;2022-12-07T12:17:59;8.73;;;2.40;;
5742;SDS011;2896;53.500;10.020;2022-12-07T12:20:39;12.03;;;2.20;;
5742;SDS011;2896;53.500;10.020;2022-12-07T12:23:11;8.00;;;2.43;;
5742;SDS011;2896;53.500;10.020;2022-12-07T12:25:41;15.43;;;2.60;;
5742;SDS011;2896;53.500;10.020;2022-12-07T12:28:18;7.10;;;2.60;;
5742;SDS011;2896;53.500;10.020;2022-12-07T12:31:04;9.80;;;1.13;;
5742;SDS011;2896;53.500;10.020;2022-12-07T12:33:32;5.60;;;1.80;;
5742;SDS011;2896;53.500;10.020;2022-12-07T12:36:22;2.93;;;1.57;;
5742;SDS011;2896;53.500;10.020;2022-12-07T12:38:51;8.30;;;1.63;;
5742;SDS011;2896;53.500;10.020;2022-12-07T12:41:51;8.30;;;1.97;;
5742;SDS011;2896;53.500;10.020;2022-12-07T12:44:38;6.73;;;2.07;;
5742;SDS011;2896;53.500;10.020;2022-12-07T12:47:37;13.87;;;1.90;;
5742;SDS011;2896;53.500;10.020;2022-12-07T12:50:12;6.33;;;1.83;;
5742;SDS011;2896;53.500;10.020;2022-12-07T12:52:49;9.00;;;2.13;;
5742;SDS011;2896;53.500;10.020;2022-12-07T12:55:28;4.50;;;1.90;;
5742;SDS011;2896;53.500;10.020;2022-12-07T12:58:31;3.80;;;1.80;;
5742;SDS011;2896;53.500;10.020;2022-12-07T13:04:00;10.17;;;1.97;;
5742;SDS011;2896;53.500;10.020;2022-12-07T13:06:33;5.80;;;2.10;;
5742;SDS011;2896;53.500;10.020;2022-12-07T13:09:03;9.30;;;2.07;;
5742;SDS011;2896;53.500;10.020;2022-12-07T13:11:31;10.00;;;2.43;;
5742;SDS011;2896;53.500;10.020;2022-12-07T13:17:01;15.63;;;2.63;;
5742;SDS011;2896;53.500;10.020;2022-12-07T13:22:34;5.57;;;2.10;;
5742;SDS011;2896;53.500;10.020;2022-12-07T13:25:07;9.27;;;1.80;;
5742;SDS011;2896;53.500;10.020;2022-12-07T13:27:37;2.27;;;1.67;;
5742;SDS011;2896;53.500;10.020;2022-12-07T13:30:09;11.70;;;2.50;;
5742;SDS011;2896;53.500;10.020;2022-12-07T13:32:41;7.20;;;2.20;;
5742;SDS011;2896;53.500;10.020;2022-12-07T13:37:56;7.73;;;2.00;;
5742;SDS011;2896;53.500;10.020;2022-12-07T13:40:23;7.90;;;2.20;;
5742;SDS011;2896;53.500;10.020;2022-12-07T13:42:57;6.83;;;2.40;;
5742;SDS011;2896;53.500;10.020;2022-12-07T13:45:25;5.93;;;2.27;;
5742;SDS011;2896;53.500;10.020;2022-12-07T13:48:14;4.40;;;1.97;;
5742;SDS011;2896;53.500;10.020;2022-12-07T13:50:53;5.70;;;2.10;;
5742;SDS011;2896;53.500;10.020;2022-12-07T13:53:20;10.93;;;2.60;;
5742;SDS011;2896;53.500;10.020;2022-12-07T13:55:48;9.97;;;1.87;;
5742;SDS011;2896;53.500;10.020;2022-12-07T13:58:15;10.33;;;2.00;;
5742;SDS011;2896;53.500;10.020;2022-12-07T14:00:42;4.60;;;1.73;;
5742;SDS011;2896;53.500;10.020;2022-12-07T14:03:28;6.80;;;2.63;;
5742;SDS011;2896;53.500;10.020;2022-12-07T14:06:06;4.40;;;2.23;;
5742;SDS011;2896;53.500;10.020;2022-12-07T14:08:40;5.13;;;2.40;;
5742;SDS011;2896;53.500;10.020;2022-12-07T14:11:07;10.20;;;3.10;;
5742;SDS011;2896;53.500;10.020;2022-12-07T14:13:39;5.90;;;1.87;;
5742;SDS011;2896;53.500;10.020;2022-12-07T14:16:18;5.03;;;1.80;;
5742;SDS011;2896;53.500;10.020;2022-12-07T14:18:49;3.70;;;1.63;;
5742;SDS011;2896;53.500;10.020;2022-12-07T14:21:18;10.50;;;2.90;;
5742;SDS011;2896;53.500;10.020;2022-12-07T14:24:01;14.60;;;2.53;;
5742;SDS011;2896;53.500;10.020;2022-12-07T14:26:40;4.67;;;2.17;;
5742;SDS011;2896;53.500;10.020;2022-12-07T14:29:21;24.63;;;2.53;;
5742;SDS011;2896;53.500;10.020;2022-12-07T14:31:54;7.50;;;2.03;;
5742;SDS011;2896;53.500;10.020;2022-12-07T14:34:23;19.80;;;2.10;;
5742;SDS011;2896;53.500;10.020;2022-12-07T14:36:51;7.90;;;1.80;;
5742;SDS011;2896;53.500;10.020;2022-12-07T14:39:18;3.50;;;1.90;;
5742;SDS011;2896;53.500;10.020;2022-12-07T14:41:45;7.03;;;1.37;;
5742;SDS011;2896;53.500;10.020;2022-12-07T14:44:19;10.10;;;2.00;;
5742;SDS011;2896;53.500;10.020;2022-12-07T14:46:46;5.07;;;2.20;;
5742;SDS011;2896;53.500;10.020;2022-12-07T14:49:13;4.70;;;1.67;;
5742;SDS011;2896;53.500;10.020;2022-12-07T14:51:40;3.40;;;1.60;;
5742;SDS011;2896;53.500;10.020;2022-12-07T14:54:12;4.50;;;1.90;;
5742;SDS011;2896;53.500;10.020;2022-12-07T14:56:42;7.90;;;2.17;;
5742;SDS011;2896;53.500;10.020;2022-12-07T14:59:10;4.23;;;1.90;;
5742;SDS011;2896;53.500;10.020;2022-12-07T15:01:37;11.63;;;2.20;;
5742;SDS011;2896;53.500;10.020;2022-12-07T15:04:04;6.53;;;2.00;;
5742;SDS011;2896;53.500;10.020;2022-12-07T15:06:31;5.10;;;2.60;;
5742;SDS011;2896;53.500;10.020;2022-12-07T15:08:58;10.13;;;2.00;;
5742;SDS011;2896;53.500;10.020;2022-12-07T15:11:26;6.47;;;3.27;;
5742;SDS011;2896;53.500;10.020;2022-12-07T15:13:52;3.30;;;2.17;;
5742;SDS011;2896;53.500;10.020;2022-12-07T15:16:36;4.53;;;2.00;;
5742;SDS011;2896;53.500;10.020;2022-12-07T15:19:04;4.80;;;2.43;;
5742;SDS011;2896;53.500;10.020;2022-12-07T15:21:31;2.13;;;2.03;;
5742;SDS011;2896;53.500;10.020;2022-12-07T15:23:58;6.73;;;2.10;;
5742;SDS011;2896;53.500;10.020;2022-12-07T15:26:26;10.73;;;2.40;;
5742;SDS011;2896;53.500;10.020;2022-12-07T15:28:52;3.73;;;2.73;;